sensor_id;sensor_type;location;lat;lon;timestamp;P1;durP1;ratioP1;P2;durP2;ratioP2
46128;SDS011;31860;45.186;5.790;2022-10-26T00:02:02;0.25;;;0.25;;
46128;SDS011;31860;45.186;5.790;2022-10-26T00:04:28;0.30;;;0.28;;
46128;SDS011;31860;45.186;5.790;2022-10-26T00:06:53;0.15;;;0.15;;
46128;SDS011;31860;45.186;5.790;2022-10-26T00:09:19;0.10;;;0.10;;
46128;SDS011;31860;45.186;5.790;2022-10-26T00:11:44;0.43;;;0.43;;
46128;SDS011;31860;45.186;5.790;2022-10-26T00:14:09;0.30;;;0.22;;
46128;SDS011;31860;45.186;5.790;2022-10-26T00:16:35;0.30;;;0.30;;
46128;SDS011;31860;45.186;5.790;2022-10-26T00:19:00;0.20;;;0.20;;
46128;SDS011;31860;45.186;5.790;2022-10-26T00:21:26;0.38;;;0.32;;
46128;SDS011;31860;45.186;5.790;2022-10-26T00:23:52;0.52;;;0.20;;
46128;SDS011;31860;45.186;5.790;2022-10-26T00:26:17;0.20;;;0.20;;
46128;SDS011;31860;45.186;5.790;2022-10-26T00:28:42;0.38;;;0.30;;
46128;SDS011;31860;45.186;5.790;2022-10-26T00:31:11;0.10;;;0.10;;
46128;SDS011;31860;45.186;5.790;2022-10-26T00:33:38;0.57;;;0.57;;
46128;SDS011;31860;45.186;5.790;2022-10-26T00:36:03;0.10;;;0.10;;
46128;SDS011;31860;45.186;5.790;2022-10-26T00:38:29;0.45;;;0.45;;
46128;SDS011;31860;45.186;5.790;2022-10-26T00:40:54;0.40;;;0.38;;
46128;SDS011;31860;45.186;5.790;2022-10-26T00:45:45;0.10;;;0.10;;
46128;SDS011;31860;45.186;5.790;2022-10-26T00:48:16;0.17;;;0.17;;
46128;SDS011;31860;45.186;5.790;2022-10-26T00:50:47;0.10;;;0.10;;
46128;SDS011;31860;45.186;5.790;2022-10-26T00:53:12;0.20;;;0.20;;
46128;SDS011;31860;45.186;5.790;2022-10-26T00:55:40;0.20;;;0.20;;
46128;SDS011;31860;45.186;5.790;2022-10-26T00:58:12;0.10;;;0.10;;
46128;SDS011;31860;45.186;5.790;2022-10-26T01:00:39;0.10;;;0.10;;
46128;SDS011;31860;45.186;5.790;2022-10-26T01:03:06;0.10;;;0.10;;
46128;SDS011;31860;45.186;5.790;2022-10-26T01:05:33;1.08;;;0.50;;
46128;SDS011;31860;45.186;5.790;2022-10-26T01:08:01;0.35;;;0.35;;
46128;SDS011;31860;45.186;5.790;2022-10-26T01:10:27;1.00;;;0.43;;
46128;SDS011;31860;45.186;5.790;2022-10-26T01:12:54;0.43;;;0.40;;
46128;SDS011;31860;45.186;5.790;2022-10-26T01:15:23;0.10;;;0.10;;
46128;SDS011;31860;45.186;5.790;2022-10-26T01:18:01;0.20;;;0.20;;
46128;SDS011;31860;45.186;5.790;2022-10-26T01:23:44;0.63;;;0.63;;
46128;SDS011;31860;45.186;5.790;2022-10-26T01:26:58;0.20;;;0.20;;
46128;SDS011;31860;45.186;5.790;2022-10-26T01:32:10;0.25;;;0.25;;
46128;SDS011;31860;45.186;5.790;2022-10-26T01:34:46;1.10;;;0.30;;
46128;SDS011;31860;45.186;5.790;2022-10-26T01:37:25;0.47;;;0.32;;
46128;SDS011;31860;45.186;5.790;2022-10-26T01:40:08;0.20;;;0.20;;
46128;SDS011;31860;45.186;5.790;2022-10-26T01:42:43;0.30;;;0.30;;
46128;SDS011;31860;45.186;5.790;2022-10-26T01:45:10;0.10;;;0.10;;
46128;SDS011;31860;45.186;5.790;2022-10-26T01:47:38;0.25;;;0.25;;
46128;SDS011;31860;45.186;5.790;2022-10-26T01:50:05;0.28;;;0.28;;
46128;SDS011;31860;45.186;5.790;2022-10-26T01:52:32;0.30;;;0.30;;
46128;SDS011;31860;45.186;5.790;2022-10-26T01:55:04;0.30;;;0.30;;
46128;SDS011;31860;45.186;5.790;2022-10-26T01:57:50;0.20;;;0.20;;
46128;SDS011;31860;45.186;5.790;2022-10-26T02:00:17;0.30;;;0.30;;
46128;SDS011;31860;45.186;5.790;2022-10-26T02:08:44;0.35;;;0.35;;
46128;SDS011;31860;45.186;5.790;2022-10-26T02:13:54;0.20;;;0.15;;
46128;SDS011;31860;45.186;5.790;2022-10-26T02:19:20;0.35;;;0.35;;
46128;SDS011;31860;45.186;5.790;2022-10-26T02:24:39;1.77;;;0.82;;
46128;SDS011;31860;45.186;5.790;2022-10-26T02:27:06;0.15;;;0.15;;
46128;SDS011;31860;45.186;5.790;2022-10-26T02:29:35;0.30;;;0.30;;
46128;SDS011;31860;45.186;5.790;2022-10-26T02:32:02;0.60;;;0.28;;
46128;SDS011;31860;45.186;5.790;2022-10-26T02:34:32;0.38;;;0.30;;
46128;SDS011;31860;45.186;5.790;2022-10-26T02:37:02;0.20;;;0.20;;
46128;SDS011;31860;45.186;5.790;2022-10-26T02:39:29;0.10;;;0.10;;
46128;SDS011;31860;45.186;5.790;2022-10-26T02:41:57;0.40;;;0.40;;
46128;SDS011;31860;45.186;5.790;2022-10-26T02:44:28;0.20;;;0.20;;
46128;SDS011;31860;45.186;5.790;2022-10-26T02:46:56;0.13;;;0.13;;
46128;SDS011;31860;45.186;5.790;2022-10-26T02:49:22;0.50;;;0.50;;
46128;SDS011;31860;45.186;5.790;2022-10-26T02:51:49;0.20;;;0.20;;
46128;SDS011;31860;45.186;5.790;2022-10-26T02:57:01;0.55;;;0.40;;
46128;SDS011;31860;45.186;5.790;2022-10-26T02:59:35;0.30;;;0.30;;
46128;SDS011;31860;45.186;5.790;2022-10-26T03:02:02;0.40;;;0.28;;
46128;SDS011;31860;45.186;5.790;2022-10-26T03:04:29;0.25;;;0.22;;
46128;SDS011;31860;45.186;5.790;2022-10-26T03:06:56;0.15;;;0.15;;
46128;SDS011;31860;45.186;5.790;2022-10-26T03:09:21;0.20;;;0.20;;
46128;SDS011;31860;45.186;5.790;2022-10-26T03:11:47;0.47;;;0.30;;
46128;SDS011;31860;45.186;5.790;2022-10-26T03:14:12;0.20;;;0.20;;
46128;SDS011;31860;45.186;5.790;2022-10-26T03:16:38;0.25;;;0.25;;
46128;SDS011;31860;45.186;5.790;2022-10-26T03:19:03;0.20;;;0.20;;
46128;SDS011;31860;45.186;5.790;2022-10-26T03:21:29;0.30;;;0.30;;
46128;SDS011;31860;45.186;5.790;2022-10-26T03:23:55;0.10;;;0.10;;
46128;SDS011;31860;45.186;5.790;2022-10-26T03:26:20;0.10;;;0.10;;
46128;SDS011;31860;45.186;5.790;2022-10-26T03:28:45;0.10;;;0.10;;
46128;SDS011;31860;45.186;5.790;2022-10-26T03:31:11;0.30;;;0.30;;
46128;SDS011;31860;45.186;5.790;2022-10-26T03:33:36;0.20;;;0.20;;
46128;SDS011;31860;45.186;5.790;2022-10-26T03:36:02;0.35;;;0.30;;
46128;SDS011;31860;45.186;5.790;2022-10-26T03:38:27;2.55;;;0.40;;
46128;SDS011;31860;45.186;5.790;2022-10-26T03:40:53;0.17;;;0.17;;
46128;SDS011;31860;45.186;5.790;2022-10-26T03:43:18;0.30;;;0.30;;
46128;SDS011;31860;45.186;5.790;2022-10-26T03:45:44;0.75;;;0.30;;
46128;SDS011;31860;45.186;5.790;2022-10-26T03:48:09;0.55;;;0.55;;
46128;SDS011;31860;45.186;5.790;2022-10-26T03:50:35;0.40;;;0.40;;
46128;SDS011;31860;45.186;5.790;2022-10-26T03:53:00;0.10;;;0.10;;
46128;SDS011;31860;45.186;5.790;2022-10-26T03:55:26;0.30;;;0.20;;
46128;SDS011;31860;45.186;5.790;2022-10-26T03:57:51;0.20;;;0.20;;
46128;SDS011;31860;45.186;5.790;2022-10-26T04:00:17;0.30;;;0.30;;
46128;SDS011;31860;45.186;5.790;2022-10-26T04:02:43;1.65;;;0.38;;
46128;SDS011;31860;45.186;5.790;2022-10-26T04:05:12;0.13;;;0.13;;
46128;SDS011;31860;45.186;5.790;2022-10-26T04:07:38;0.22;;;0.22;;
46128;SDS011;31860;45.186;5.790;2022-10-26T04:10:04;0.20;;;0.20;;
46128;SDS011;31860;45.186;5.790;2022-10-26T04:12:30;0.25;;;0.25;;
46128;SDS011;31860;45.186;5.790;2022-10-26T04:14:55;0.20;;;0.20;;
46128;SDS011;31860;45.186;5.790;2022-10-26T04:17:24;0.22;;;0.22;;
46128;SDS011;31860;45.186;5.790;2022-10-26T04:19:49;0.25;;;0.25;;
46128;SDS011;31860;45.186;5.790;2022-10-26T04:22:15;0.10;;;0.10;;
46128;SDS011;31860;45.186;5.790;2022-10-26T04:24:40;0.75;;;0.40;;
46128;SDS011;31860;45.186;5.790;2022-10-26T04:27:06;0.20;;;0.20;;
46128;SDS011;31860;45.186;5.790;2022-10-26T04:29:31;0.20;;;0.20;;
46128;SDS011;31860;45.186;5.790;2022-10-26T04:31:57;0.70;;;0.52;;
46128;SDS011;31860;45.186;5.790;2022-10-26T04:34:22;0.20;;;0.15;;
46128;SDS011;31860;45.186;5.790;2022-10-26T04:36:47;1.25;;;0.57;;
46128;SDS011;31860;45.186;5.790;2022-10-26T04:39:13;0.10;;;0.10;;
46128;SDS011;31860;45.186;5.790;2022-10-26T04:41:38;0.20;;;0.20;;
46128;SDS011;31860;45.186;5.790;2022-10-26T04:44:03;0.40;;;0.40;;
46128;SDS011;31860;45.186;5.790;2022-10-26T04:46:29;0.10;;;0.10;;
46128;SDS011;31860;45.186;5.790;2022-10-26T04:48:54;0.30;;;0.30;;
46128;SDS011;31860;45.186;5.790;2022-10-26T04:51:20;1.45;;;0.35;;
46128;SDS011;31860;45.186;5.790;2022-10-26T04:53:45;3.40;;;0.85;;
46128;SDS011;31860;45.186;5.790;2022-10-26T04:56:10;0.38;;;0.38;;
46128;SDS011;31860;45.186;5.790;2022-10-26T04:58:36;0.30;;;0.30;;
46128;SDS011;31860;45.186;5.790;2022-10-26T05:01:01;0.40;;;0.40;;
46128;SDS011;31860;45.186;5.790;2022-10-26T05:03:27;0.17;;;0.17;;
46128;SDS011;31860;45.186;5.790;2022-10-26T05:05:52;0.30;;;0.30;;
46128;SDS011;31860;45.186;5.790;2022-10-26T05:08:18;0.38;;;0.17;;
46128;SDS011;31860;45.186;5.790;2022-10-26T05:10:47;0.38;;;0.38;;
46128;SDS011;31860;45.186;5.790;2022-10-26T05:13:15;1.17;;;0.50;;
46128;SDS011;31860;45.186;5.790;2022-10-26T05:15:41;0.15;;;0.15;;
46128;SDS011;31860;45.186;5.790;2022-10-26T05:18:06;0.50;;;0.50;;
46128;SDS011;31860;45.186;5.790;2022-10-26T05:20:33;0.30;;;0.20;;
46128;SDS011;31860;45.186;5.790;2022-10-26T05:23:01;0.40;;;0.40;;
46128;SDS011;31860;45.186;5.790;2022-10-26T05:25:29;5.00;;;0.65;;
46128;SDS011;31860;45.186;5.790;2022-10-26T05:27:56;0.45;;;0.43;;
46128;SDS011;31860;45.186;5.790;2022-10-26T05:30:23;0.13;;;0.13;;
46128;SDS011;31860;45.186;5.790;2022-10-26T05:32:57;0.17;;;0.17;;
46128;SDS011;31860;45.186;5.790;2022-10-26T05:35:25;0.20;;;0.20;;
46128;SDS011;31860;45.186;5.790;2022-10-26T05:37:51;0.20;;;0.20;;
46128;SDS011;31860;45.186;5.790;2022-10-26T05:40:17;2.20;;;0.63;;
46128;SDS011;31860;45.186;5.790;2022-10-26T05:42:43;0.35;;;0.28;;
46128;SDS011;31860;45.186;5.790;2022-10-26T05:45:09;0.10;;;0.10;;
46128;SDS011;31860;45.186;5.790;2022-10-26T05:47:41;2.15;;;0.52;;
46128;SDS011;31860;45.186;5.790;2022-10-26T05:50:07;0.35;;;0.35;;
46128;SDS011;31860;45.186;5.790;2022-10-26T05:52:38;1.05;;;0.45;;
46128;SDS011;31860;45.186;5.790;2022-10-26T05:55:05;0.30;;;0.30;;
46128;SDS011;31860;45.186;5.790;2022-10-26T05:57:31;0.43;;;0.43;;
46128;SDS011;31860;45.186;5.790;2022-10-26T05:59:57;0.15;;;0.15;;
46128;SDS011;31860;45.186;5.790;2022-10-26T06:02:34;2.67;;;0.52;;
46128;SDS011;31860;45.186;5.790;2022-10-26T06:05:40;1.17;;;0.65;;
46128;SDS011;31860;45.186;5.790;2022-10-26T06:08:19;0.10;;;0.10;;
46128;SDS011;31860;45.186;5.790;2022-10-26T06:10:45;0.25;;;0.25;;
46128;SDS011;31860;45.186;5.790;2022-10-26T06:13:11;0.38;;;0.38;;
46128;SDS011;31860;45.186;5.790;2022-10-26T06:15:42;0.47;;;0.40;;
46128;SDS011;31860;45.186;5.790;2022-10-26T06:29:19;0.32;;;0.30;;
46128;SDS011;31860;45.186;5.790;2022-10-26T06:31:47;0.95;;;0.57;;
46128;SDS011;31860;45.186;5.790;2022-10-26T06:34:14;0.55;;;0.47;;
46128;SDS011;31860;45.186;5.790;2022-10-26T06:36:47;0.38;;;0.38;;
46128;SDS011;31860;45.186;5.790;2022-10-26T06:39:13;0.10;;;0.10;;
46128;SDS011;31860;45.186;5.790;2022-10-26T06:41:40;0.20;;;0.20;;
46128;SDS011;31860;45.186;5.790;2022-10-26T06:44:07;0.65;;;0.65;;
46128;SDS011;31860;45.186;5.790;2022-10-26T06:46:44;0.35;;;0.20;;
46128;SDS011;31860;45.186;5.790;2022-10-26T06:51:48;1.17;;;0.50;;
46128;SDS011;31860;45.186;5.790;2022-10-26T06:54:24;0.10;;;0.10;;
46128;SDS011;31860;45.186;5.790;2022-10-26T06:56:54;0.13;;;0.13;;
46128;SDS011;31860;45.186;5.790;2022-10-26T06:59:24;1.17;;;0.70;;
46128;SDS011;31860;45.186;5.790;2022-10-26T07:01:57;0.20;;;0.20;;
46128;SDS011;31860;45.186;5.790;2022-10-26T07:04:22;0.20;;;0.20;;
46128;SDS011;31860;45.186;5.790;2022-10-26T07:06:47;0.50;;;0.25;;
46128;SDS011;31860;45.186;5.790;2022-10-26T07:09:13;0.13;;;0.13;;
46128;SDS011;31860;45.186;5.790;2022-10-26T07:11:38;0.60;;;0.50;;
46128;SDS011;31860;45.186;5.790;2022-10-26T07:14:04;0.52;;;0.50;;
46128;SDS011;31860;45.186;5.790;2022-10-26T07:16:29;0.30;;;0.30;;
46128;SDS011;31860;45.186;5.790;2022-10-26T07:18:56;1.15;;;0.32;;
46128;SDS011;31860;45.186;5.790;2022-10-26T07:21:21;2.25;;;0.73;;
46128;SDS011;31860;45.186;5.790;2022-10-26T07:23:46;0.70;;;0.70;;
46128;SDS011;31860;45.186;5.790;2022-10-26T07:26:12;0.63;;;0.50;;
46128;SDS011;31860;45.186;5.790;2022-10-26T07:28:37;0.68;;;0.68;;
46128;SDS011;31860;45.186;5.790;2022-10-26T07:31:03;1.70;;;1.23;;
46128;SDS011;31860;45.186;5.790;2022-10-26T07:33:29;2.17;;;1.45;;
46128;SDS011;31860;45.186;5.790;2022-10-26T07:35:57;0.98;;;0.63;;
46128;SDS011;31860;45.186;5.790;2022-10-26T07:38:23;7.70;;;1.42;;
46128;SDS011;31860;45.186;5.790;2022-10-26T07:40:48;2.63;;;2.10;;
46128;SDS011;31860;45.186;5.790;2022-10-26T07:43:14;1.52;;;1.40;;
46128;SDS011;31860;45.186;5.790;2022-10-26T07:45:40;3.65;;;2.28;;
46128;SDS011;31860;45.186;5.790;2022-10-26T07:48:05;7.78;;;2.45;;
46128;SDS011;31860;45.186;5.790;2022-10-26T07:50:31;7.13;;;2.88;;
46128;SDS011;31860;45.186;5.790;2022-10-26T07:52:57;3.97;;;2.35;;
46128;SDS011;31860;45.186;5.790;2022-10-26T07:55:23;3.70;;;2.72;;
46128;SDS011;31860;45.186;5.790;2022-10-26T07:57:48;5.85;;;3.08;;
46128;SDS011;31860;45.186;5.790;2022-10-26T08:00:14;7.82;;;1.60;;
46128;SDS011;31860;45.186;5.790;2022-10-26T08:02:39;7.75;;;2.38;;
46128;SDS011;31860;45.186;5.790;2022-10-26T08:05:05;1.35;;;1.05;;
46128;SDS011;31860;45.186;5.790;2022-10-26T08:07:31;2.13;;;0.90;;
46128;SDS011;31860;45.186;5.790;2022-10-26T08:09:56;0.65;;;0.65;;
46128;SDS011;31860;45.186;5.790;2022-10-26T08:12:22;0.70;;;0.47;;
46128;SDS011;31860;45.186;5.790;2022-10-26T08:14:47;0.57;;;0.57;;
46128;SDS011;31860;45.186;5.790;2022-10-26T08:17:13;0.57;;;0.57;;
46128;SDS011;31860;45.186;5.790;2022-10-26T08:19:39;0.30;;;0.30;;
46128;SDS011;31860;45.186;5.790;2022-10-26T08:22:04;0.43;;;0.43;;
46128;SDS011;31860;45.186;5.790;2022-10-26T08:24:30;0.73;;;0.63;;
46128;SDS011;31860;45.186;5.790;2022-10-26T08:26:56;0.45;;;0.45;;
46128;SDS011;31860;45.186;5.790;2022-10-26T08:29:21;2.53;;;0.43;;
46128;SDS011;31860;45.186;5.790;2022-10-26T08:31:47;0.90;;;0.55;;
46128;SDS011;31860;45.186;5.790;2022-10-26T08:34:12;1.75;;;0.30;;
46128;SDS011;31860;45.186;5.790;2022-10-26T08:36:37;0.40;;;0.40;;
46128;SDS011;31860;45.186;5.790;2022-10-26T08:39:03;0.43;;;0.43;;
46128;SDS011;31860;45.186;5.790;2022-10-26T08:41:34;0.40;;;0.40;;
46128;SDS011;31860;45.186;5.790;2022-10-26T08:44:15;0.60;;;0.50;;
46128;SDS011;31860;45.186;5.790;2022-10-26T08:46:57;1.02;;;0.50;;
46128;SDS011;31860;45.186;5.790;2022-10-26T08:49:29;0.40;;;0.40;;
46128;SDS011;31860;45.186;5.790;2022-10-26T08:52:02;0.70;;;0.70;;
46128;SDS011;31860;45.186;5.790;2022-10-26T08:54:33;0.80;;;0.70;;
46128;SDS011;31860;45.186;5.790;2022-10-26T08:59:59;0.65;;;0.60;;
46128;SDS011;31860;45.186;5.790;2022-10-26T09:02:28;0.55;;;0.35;;
46128;SDS011;31860;45.186;5.790;2022-10-26T09:04:54;0.52;;;0.32;;
46128;SDS011;31860;45.186;5.790;2022-10-26T09:19:04;0.32;;;0.32;;
46128;SDS011;31860;45.186;5.790;2022-10-26T09:26:56;0.50;;;0.50;;
46128;SDS011;31860;45.186;5.790;2022-10-26T09:29:30;0.10;;;0.10;;
46128;SDS011;31860;45.186;5.790;2022-10-26T09:32:02;0.90;;;0.75;;
46128;SDS011;31860;45.186;5.790;2022-10-26T09:34:31;0.68;;;0.40;;
46128;SDS011;31860;45.186;5.790;2022-10-26T09:37:14;0.63;;;0.57;;
46128;SDS011;31860;45.186;5.790;2022-10-26T09:39:51;0.40;;;0.40;;
46128;SDS011;31860;45.186;5.790;2022-10-26T09:42:21;0.30;;;0.30;;
46128;SDS011;31860;45.186;5.790;2022-10-26T09:44:57;0.38;;;0.28;;
46128;SDS011;31860;45.186;5.790;2022-10-26T09:47:49;1.95;;;0.43;;
46128;SDS011;31860;45.186;5.790;2022-10-26T09:50:19;1.38;;;0.82;;
46128;SDS011;31860;45.186;5.790;2022-10-26T09:52:48;0.30;;;0.30;;
46128;SDS011;31860;45.186;5.790;2022-10-26T09:55:13;0.77;;;0.68;;
46128;SDS011;31860;45.186;5.790;2022-10-26T09:57:40;0.30;;;0.30;;
46128;SDS011;31860;45.186;5.790;2022-10-26T10:00:12;1.10;;;0.40;;
46128;SDS011;31860;45.186;5.790;2022-10-26T10:02:43;0.20;;;0.20;;
46128;SDS011;31860;45.186;5.790;2022-10-26T10:08:38;0.40;;;0.40;;
46128;SDS011;31860;45.186;5.790;2022-10-26T10:11:06;0.40;;;0.40;;
46128;SDS011;31860;45.186;5.790;2022-10-26T10:13:38;1.45;;;0.70;;
46128;SDS011;31860;45.186;5.790;2022-10-26T10:18:57;0.45;;;0.45;;
46128;SDS011;31860;45.186;5.790;2022-10-26T10:21:36;0.80;;;0.60;;
46128;SDS011;31860;45.186;5.790;2022-10-26T10:29:26;0.20;;;0.20;;
46128;SDS011;31860;45.186;5.790;2022-10-26T10:31:57;2.35;;;0.40;;
46128;SDS011;31860;45.186;5.790;2022-10-26T10:34:24;0.40;;;0.40;;
46128;SDS011;31860;45.186;5.790;2022-10-26T10:36:50;0.35;;;0.35;;
46128;SDS011;31860;45.186;5.790;2022-10-26T10:39:24;0.22;;;0.22;;
46128;SDS011;31860;45.186;5.790;2022-10-26T10:41:55;0.13;;;0.13;;
46128;SDS011;31860;45.186;5.790;2022-10-26T10:44:23;1.80;;;0.52;;
46128;SDS011;31860;45.186;5.790;2022-10-26T10:47:03;0.25;;;0.25;;
46128;SDS011;31860;45.186;5.790;2022-10-26T10:49:30;0.55;;;0.40;;
46128;SDS011;31860;45.186;5.790;2022-10-26T10:51:57;0.28;;;0.28;;
46128;SDS011;31860;45.186;5.790;2022-10-26T10:54:36;0.40;;;0.40;;
46128;SDS011;31860;45.186;5.790;2022-10-26T11:00:07;0.40;;;0.40;;
46128;SDS011;31860;45.186;5.790;2022-10-26T11:02:47;0.40;;;0.25;;
46128;SDS011;31860;45.186;5.790;2022-10-26T11:08:17;0.20;;;0.20;;
46128;SDS011;31860;45.186;5.790;2022-10-26T11:10:45;0.35;;;0.30;;
46128;SDS011;31860;45.186;5.790;2022-10-26T11:13:19;0.38;;;0.38;;
46128;SDS011;31860;45.186;5.790;2022-10-26T11:18:19;0.40;;;0.40;;
46128;SDS011;31860;45.186;5.790;2022-10-26T11:21:00;0.10;;;0.10;;
46128;SDS011;31860;45.186;5.790;2022-10-26T11:23:36;0.30;;;0.30;;
46128;SDS011;31860;45.186;5.790;2022-10-26T11:26:11;0.60;;;0.60;;
46128;SDS011;31860;45.186;5.790;2022-10-26T11:31:19;2.58;;;0.98;;
46128;SDS011;31860;45.186;5.790;2022-10-26T11:33:58;0.52;;;0.32;;
46128;SDS011;31860;45.186;5.790;2022-10-26T11:36:39;0.43;;;0.43;;
46128;SDS011;31860;45.186;5.790;2022-10-26T11:42:12;0.43;;;0.30;;
46128;SDS011;31860;45.186;5.790;2022-10-26T11:44:55;0.40;;;0.40;;
46128;SDS011;31860;45.186;5.790;2022-10-26T11:47:33;0.17;;;0.17;;
46128;SDS011;31860;45.186;5.790;2022-10-26T11:50:12;0.30;;;0.30;;
46128;SDS011;31860;45.186;5.790;2022-10-26T11:52:46;0.63;;;0.47;;
46128;SDS011;31860;45.186;5.790;2022-10-26T11:55:16;2.08;;;0.82;;
46128;SDS011;31860;45.186;5.790;2022-10-26T11:57:44;0.55;;;0.35;;
46128;SDS011;31860;45.186;5.790;2022-10-26T12:00:17;0.30;;;0.30;;
46128;SDS011;31860;45.186;5.790;2022-10-26T12:07:56;2.10;;;1.02;;
46128;SDS011;31860;45.186;5.790;2022-10-26T12:10:33;0.30;;;0.30;;
46128;SDS011;31860;45.186;5.790;2022-10-26T12:13:18;0.47;;;0.15;;
46128;SDS011;31860;45.186;5.790;2022-10-26T12:18:37;0.65;;;0.45;;
46128;SDS011;31860;45.186;5.790;2022-10-26T12:21:06;0.30;;;0.20;;
46128;SDS011;31860;45.186;5.790;2022-10-26T12:23:35;1.45;;;0.93;;
46128;SDS011;31860;45.186;5.790;2022-10-26T12:28:46;0.50;;;0.50;;
46128;SDS011;31860;45.186;5.790;2022-10-26T12:31:57;0.35;;;0.35;;
46128;SDS011;31860;45.186;5.790;2022-10-26T12:34:00;0.82;;;0.68;;
46128;SDS011;31860;45.186;5.790;2022-10-26T12:44:30;0.15;;;0.13;;
46128;SDS011;31860;45.186;5.790;2022-10-26T12:47:07;1.48;;;0.63;;
46128;SDS011;31860;45.186;5.790;2022-10-26T12:55:16;0.70;;;0.63;;
46128;SDS011;31860;45.186;5.790;2022-10-26T13:08:42;0.20;;;0.20;;
46128;SDS011;31860;45.186;5.790;2022-10-26T13:11:16;0.40;;;0.40;;
46128;SDS011;31860;45.186;5.790;2022-10-26T13:13:51;0.30;;;0.30;;
46128;SDS011;31860;45.186;5.790;2022-10-26T13:16:18;0.40;;;0.20;;
46128;SDS011;31860;45.186;5.790;2022-10-26T13:18:44;0.20;;;0.20;;
46128;SDS011;31860;45.186;5.790;2022-10-26T13:21:18;0.52;;;0.30;;
46128;SDS011;31860;45.186;5.790;2022-10-26T13:23:46;0.20;;;0.20;;
46128;SDS011;31860;45.186;5.790;2022-10-26T13:26:25;0.80;;;0.50;;
46128;SDS011;31860;45.186;5.790;2022-10-26T13:28:58;0.38;;;0.20;;
46128;SDS011;31860;45.186;5.790;2022-10-26T13:34:00;0.28;;;0.20;;
46128;SDS011;31860;45.186;5.790;2022-10-26T13:36:30;0.32;;;0.32;;
46128;SDS011;31860;45.186;5.790;2022-10-26T13:39:03;0.10;;;0.10;;
46128;SDS011;31860;45.186;5.790;2022-10-26T13:41:41;0.30;;;0.30;;
46128;SDS011;31860;45.186;5.790;2022-10-26T13:44:15;0.45;;;0.40;;
46128;SDS011;31860;45.186;5.790;2022-10-26T13:46:55;0.43;;;0.40;;
46128;SDS011;31860;45.186;5.790;2022-10-26T13:49:29;0.65;;;0.30;;
46128;SDS011;31860;45.186;5.790;2022-10-26T13:52:00;0.20;;;0.20;;
46128;SDS011;31860;45.186;5.790;2022-10-26T13:57:21;0.30;;;0.30;;
46128;SDS011;31860;45.186;5.790;2022-10-26T13:59:51;0.40;;;0.40;;
46128;SDS011;31860;45.186;5.790;2022-10-26T14:02:24;0.10;;;0.10;;
46128;SDS011;31860;45.186;5.790;2022-10-26T14:05:02;0.30;;;0.25;;
46128;SDS011;31860;45.186;5.790;2022-10-26T14:07:42;0.30;;;0.30;;
46128;SDS011;31860;45.186;5.790;2022-10-26T14:10:28;0.10;;;0.10;;
46128;SDS011;31860;45.186;5.790;2022-10-26T14:12:57;0.65;;;0.40;;
46128;SDS011;31860;45.186;5.790;2022-10-26T14:15:28;0.73;;;0.57;;
46128;SDS011;31860;45.186;5.790;2022-10-26T14:17:56;0.68;;;0.45;;
46128;SDS011;31860;45.186;5.790;2022-10-26T14:20:24;0.20;;;0.20;;
46128;SDS011;31860;45.186;5.790;2022-10-26T14:22:52;0.20;;;0.20;;
46128;SDS011;31860;45.186;5.790;2022-10-26T14:25:21;0.10;;;0.10;;
46128;SDS011;31860;45.186;5.790;2022-10-26T14:27:48;0.20;;;0.20;;
46128;SDS011;31860;45.186;5.790;2022-10-26T14:30:29;0.57;;;0.57;;
46128;SDS011;31860;45.186;5.790;2022-10-26T14:32:56;1.20;;;0.30;;
46128;SDS011;31860;45.186;5.790;2022-10-26T14:35:29;0.40;;;0.40;;
46128;SDS011;31860;45.186;5.790;2022-10-26T14:38:04;0.20;;;0.20;;
46128;SDS011;31860;45.186;5.790;2022-10-26T14:40:39;0.38;;;0.30;;
46128;SDS011;31860;45.186;5.790;2022-10-26T14:43:05;0.30;;;0.30;;
46128;SDS011;31860;45.186;5.790;2022-10-26T14:48:01;0.30;;;0.30;;
46128;SDS011;31860;45.186;5.790;2022-10-26T14:50:29;0.45;;;0.30;;
46128;SDS011;31860;45.186;5.790;2022-10-26T14:53:14;1.85;;;0.47;;
46128;SDS011;31860;45.186;5.790;2022-10-26T14:55:58;3.63;;;0.20;;
46128;SDS011;31860;45.186;5.790;2022-10-26T14:58:25;0.28;;;0.28;;
46128;SDS011;31860;45.186;5.790;2022-10-26T15:03:41;0.88;;;0.65;;
46128;SDS011;31860;45.186;5.790;2022-10-26T15:06:30;0.30;;;0.30;;
46128;SDS011;31860;45.186;5.790;2022-10-26T15:09:00;0.30;;;0.30;;
46128;SDS011;31860;45.186;5.790;2022-10-26T15:11:28;0.93;;;0.68;;
46128;SDS011;31860;45.186;5.790;2022-10-26T15:13:55;0.35;;;0.35;;
46128;SDS011;31860;45.186;5.790;2022-10-26T15:16:23;1.70;;;0.52;;
46128;SDS011;31860;45.186;5.790;2022-10-26T15:18:54;0.65;;;0.65;;
46128;SDS011;31860;45.186;5.790;2022-10-26T15:21:46;0.30;;;0.30;;
46128;SDS011;31860;45.186;5.790;2022-10-26T15:26:56;0.10;;;0.10;;
46128;SDS011;31860;45.186;5.790;2022-10-26T15:29:35;0.15;;;0.15;;
46128;SDS011;31860;45.186;5.790;2022-10-26T15:32:02;0.15;;;0.15;;
46128;SDS011;31860;45.186;5.790;2022-10-26T15:34:29;1.35;;;0.30;;
46128;SDS011;31860;45.186;5.790;2022-10-26T15:36:54;0.30;;;0.30;;
46128;SDS011;31860;45.186;5.790;2022-10-26T15:39:20;0.20;;;0.20;;
46128;SDS011;31860;45.186;5.790;2022-10-26T15:41:46;0.20;;;0.20;;
46128;SDS011;31860;45.186;5.790;2022-10-26T15:44:14;0.30;;;0.30;;
46128;SDS011;31860;45.186;5.790;2022-10-26T15:46:43;2.63;;;0.57;;
46128;SDS011;31860;45.186;5.790;2022-10-26T15:49:17;0.15;;;0.15;;
46128;SDS011;31860;45.186;5.790;2022-10-26T15:51:44;0.30;;;0.30;;
46128;SDS011;31860;45.186;5.790;2022-10-26T15:54:11;1.20;;;0.52;;
46128;SDS011;31860;45.186;5.790;2022-10-26T15:56:37;0.70;;;0.13;;
46128;SDS011;31860;45.186;5.790;2022-10-26T15:59:13;0.35;;;0.30;;
46128;SDS011;31860;45.186;5.790;2022-10-26T16:01:41;0.65;;;0.20;;
46128;SDS011;31860;45.186;5.790;2022-10-26T16:04:08;0.13;;;0.13;;
46128;SDS011;31860;45.186;5.790;2022-10-26T16:06:35;0.30;;;0.30;;
46128;SDS011;31860;45.186;5.790;2022-10-26T16:09:03;0.28;;;0.20;;
46128;SDS011;31860;45.186;5.790;2022-10-26T16:11:30;0.40;;;0.32;;
46128;SDS011;31860;45.186;5.790;2022-10-26T16:13:56;0.30;;;0.30;;
46128;SDS011;31860;45.186;5.790;2022-10-26T16:16:22;0.30;;;0.30;;
46128;SDS011;31860;45.186;5.790;2022-10-26T16:18:50;0.25;;;0.25;;
46128;SDS011;31860;45.186;5.790;2022-10-26T16:21:17;0.47;;;0.47;;
46128;SDS011;31860;45.186;5.790;2022-10-26T16:23:44;3.63;;;0.40;;
46128;SDS011;31860;45.186;5.790;2022-10-26T16:26:11;0.40;;;0.40;;
46128;SDS011;31860;45.186;5.790;2022-10-26T16:28:36;0.40;;;0.40;;
46128;SDS011;31860;45.186;5.790;2022-10-26T16:31:06;0.43;;;0.38;;
46128;SDS011;31860;45.186;5.790;2022-10-26T16:33:34;0.40;;;0.40;;
46128;SDS011;31860;45.186;5.790;2022-10-26T16:36:00;0.40;;;0.40;;
46128;SDS011;31860;45.186;5.790;2022-10-26T16:38:26;0.30;;;0.30;;
46128;SDS011;31860;45.186;5.790;2022-10-26T16:41:11;0.30;;;0.30;;
46128;SDS011;31860;45.186;5.790;2022-10-26T16:43:38;3.25;;;0.55;;
46128;SDS011;31860;45.186;5.790;2022-10-26T16:46:06;0.20;;;0.20;;
46128;SDS011;31860;45.186;5.790;2022-10-26T16:48:38;0.30;;;0.30;;
46128;SDS011;31860;45.186;5.790;2022-10-26T16:51:07;0.20;;;0.20;;
46128;SDS011;31860;45.186;5.790;2022-10-26T16:53:34;0.30;;;0.30;;
46128;SDS011;31860;45.186;5.790;2022-10-26T16:56:04;0.43;;;0.43;;
46128;SDS011;31860;45.186;5.790;2022-10-26T16:58:35;0.70;;;0.47;;
46128;SDS011;31860;45.186;5.790;2022-10-26T17:01:01;0.32;;;0.32;;
46128;SDS011;31860;45.186;5.790;2022-10-26T17:03:26;0.32;;;0.32;;
46128;SDS011;31860;45.186;5.790;2022-10-26T17:05:59;0.50;;;0.47;;
46128;SDS011;31860;45.186;5.790;2022-10-26T17:08:25;0.57;;;0.57;;
46128;SDS011;31860;45.186;5.790;2022-10-26T17:10:52;0.43;;;0.43;;
46128;SDS011;31860;45.186;5.790;2022-10-26T17:13:18;0.45;;;0.45;;
46128;SDS011;31860;45.186;5.790;2022-10-26T17:15:44;0.47;;;0.47;;